sensor_id;sensor_type;location;lat;lon;timestamp;P1;durP1;ratioP1;P2;durP2;ratioP2
48951;SDS011;34758;42.148;24.744;2023-02-15T00:01:43;10.93;;;8.68;;
48951;SDS011;34758;42.148;24.744;2023-02-15T00:04:18;11.25;;;8.43;;
48951;SDS011;34758;42.148;24.744;2023-02-15T00:06:47;12.25;;;9.57;;
48951;SDS011;34758;42.148;24.744;2023-02-15T00:09:15;11.25;;;8.57;;
48951;SDS011;34758;42.148;24.744;2023-02-15T00:11:44;13.20;;;9.43;;
48951;SDS011;34758;42.148;24.744;2023-02-15T00:14:16;11.32;;;9.10;;
48951;SDS011;34758;42.148;24.744;2023-02-15T00:16:48;12.20;;;9.30;;
48951;SDS011;34758;42.148;24.744;2023-02-15T00:19:18;15.70;;;10.87;;
48951;SDS011;34758;42.148;24.744;2023-02-15T00:21:46;13.63;;;9.82;;
48951;SDS011;34758;42.148;24.744;2023-02-15T00:24:13;13.43;;;10.32;;
48951;SDS011;34758;42.148;24.744;2023-02-15T00:26:41;14.07;;;9.90;;
48951;SDS011;34758;42.148;24.744;2023-02-15T00:29:09;14.38;;;10.77;;
48951;SDS011;34758;42.148;24.744;2023-02-15T00:31:36;15.18;;;10.77;;
48951;SDS011;34758;42.148;24.744;2023-02-15T00:34:06;14.60;;;10.40;;
48951;SDS011;34758;42.148;24.744;2023-02-15T00:36:36;15.05;;;11.25;;
48951;SDS011;34758;42.148;24.744;2023-02-15T00:39:05;16.02;;;11.38;;
48951;SDS011;34758;42.148;24.744;2023-02-15T00:41:32;14.82;;;11.27;;
48951;SDS011;34758;42.148;24.744;2023-02-15T00:44:02;18.75;;;11.35;;
48951;SDS011;34758;42.148;24.744;2023-02-15T00:46:29;15.05;;;10.55;;
48951;SDS011;34758;42.148;24.744;2023-02-15T00:48:59;15.02;;;11.10;;
48951;SDS011;34758;42.148;24.744;2023-02-15T00:51:28;18.25;;;11.95;;
48951;SDS011;34758;42.148;24.744;2023-02-15T00:53:55;14.38;;;11.27;;
48951;SDS011;34758;42.148;24.744;2023-02-15T00:56:24;15.10;;;11.70;;
48951;SDS011;34758;42.148;24.744;2023-02-15T00:58:53;16.83;;;12.63;;
48951;SDS011;34758;42.148;24.744;2023-02-15T01:01:22;19.30;;;12.40;;
48951;SDS011;34758;42.148;24.744;2023-02-15T01:03:51;18.13;;;12.40;;
48951;SDS011;34758;42.148;24.744;2023-02-15T01:06:19;14.95;;;10.85;;
48951;SDS011;34758;42.148;24.744;2023-02-15T01:08:47;15.73;;;11.63;;
48951;SDS011;34758;42.148;24.744;2023-02-15T01:11:17;15.27;;;10.50;;
48951;SDS011;34758;42.148;24.744;2023-02-15T01:13:47;16.38;;;12.05;;
48951;SDS011;34758;42.148;24.744;2023-02-15T01:16:16;18.90;;;13.25;;
48951;SDS011;34758;42.148;24.744;2023-02-15T01:18:45;18.88;;;13.30;;
48951;SDS011;34758;42.148;24.744;2023-02-15T01:21:13;16.02;;;11.05;;
48951;SDS011;34758;42.148;24.744;2023-02-15T01:23:42;15.00;;;10.98;;
48951;SDS011;34758;42.148;24.744;2023-02-15T01:26:11;16.40;;;11.40;;
48951;SDS011;34758;42.148;24.744;2023-02-15T01:28:41;15.80;;;11.45;;
48951;SDS011;34758;42.148;24.744;2023-02-15T01:31:10;13.93;;;10.32;;
48951;SDS011;34758;42.148;24.744;2023-02-15T01:33:38;16.90;;;11.90;;
48951;SDS011;34758;42.148;24.744;2023-02-15T01:36:05;17.25;;;12.25;;
48951;SDS011;34758;42.148;24.744;2023-02-15T01:38:34;19.52;;;12.82;;
48951;SDS011;34758;42.148;24.744;2023-02-15T01:41:02;18.38;;;12.48;;
48951;SDS011;34758;42.148;24.744;2023-02-15T01:43:50;17.13;;;11.85;;
48951;SDS011;34758;42.148;24.744;2023-02-15T01:46:19;16.65;;;12.23;;
48951;SDS011;34758;42.148;24.744;2023-02-15T01:48:50;16.27;;;11.55;;
48951;SDS011;34758;42.148;24.744;2023-02-15T01:51:23;18.30;;;12.95;;
48951;SDS011;34758;42.148;24.744;2023-02-15T01:53:51;17.08;;;12.30;;
48951;SDS011;34758;42.148;24.744;2023-02-15T01:56:19;16.83;;;12.85;;
48951;SDS011;34758;42.148;24.744;2023-02-15T01:58:51;16.27;;;12.18;;
48951;SDS011;34758;42.148;24.744;2023-02-15T02:01:25;17.83;;;12.87;;
48951;SDS011;34758;42.148;24.744;2023-02-15T02:03:56;18.27;;;13.15;;
48951;SDS011;34758;42.148;24.744;2023-02-15T02:06:27;16.50;;;11.90;;
48951;SDS011;34758;42.148;24.744;2023-02-15T02:08:57;19.52;;;13.05;;
48951;SDS011;34758;42.148;24.744;2023-02-15T02:11:26;20.08;;;13.25;;
48951;SDS011;34758;42.148;24.744;2023-02-15T02:13:56;18.33;;;13.23;;
48951;SDS011;34758;42.148;24.744;2023-02-15T02:16:24;16.67;;;11.93;;
48951;SDS011;34758;42.148;24.744;2023-02-15T02:18:58;17.60;;;12.15;;
48951;SDS011;34758;42.148;24.744;2023-02-15T02:21:47;19.73;;;12.32;;
48951;SDS011;34758;42.148;24.744;2023-02-15T02:24:40;15.32;;;11.60;;
48951;SDS011;34758;42.148;24.744;2023-02-15T02:27:23;18.77;;;12.68;;
48951;SDS011;34758;42.148;24.744;2023-02-15T02:33:14;18.73;;;11.77;;
48951;SDS011;34758;42.148;24.744;2023-02-15T02:35:56;16.02;;;11.80;;
48951;SDS011;34758;42.148;24.744;2023-02-15T02:38:27;17.38;;;12.95;;
48951;SDS011;34758;42.148;24.744;2023-02-15T02:41:01;17.83;;;12.52;;
48951;SDS011;34758;42.148;24.744;2023-02-15T02:43:37;15.27;;;11.80;;
48951;SDS011;34758;42.148;24.744;2023-02-15T02:46:09;17.38;;;12.27;;
48951;SDS011;34758;42.148;24.744;2023-02-15T02:48:42;17.75;;;12.65;;
48951;SDS011;34758;42.148;24.744;2023-02-15T02:51:09;17.80;;;12.32;;
48951;SDS011;34758;42.148;24.744;2023-02-15T02:53:36;15.63;;;11.38;;
48951;SDS011;34758;42.148;24.744;2023-02-15T02:56:03;17.02;;;11.85;;
48951;SDS011;34758;42.148;24.744;2023-02-15T02:58:34;15.82;;;11.73;;
48951;SDS011;34758;42.148;24.744;2023-02-15T03:01:05;16.52;;;11.88;;
48951;SDS011;34758;42.148;24.744;2023-02-15T03:03:34;16.92;;;11.80;;
48951;SDS011;34758;42.148;24.744;2023-02-15T03:06:07;17.73;;;12.30;;
48951;SDS011;34758;42.148;24.744;2023-02-15T03:08:36;16.65;;;11.85;;
48951;SDS011;34758;42.148;24.744;2023-02-15T03:11:06;17.08;;;11.40;;
48951;SDS011;34758;42.148;24.744;2023-02-15T03:13:33;18.48;;;12.77;;
48951;SDS011;34758;42.148;24.744;2023-02-15T03:16:06;18.80;;;13.25;;
48951;SDS011;34758;42.148;24.744;2023-02-15T03:18:57;18.58;;;12.52;;
48951;SDS011;34758;42.148;24.744;2023-02-15T03:21:29;20.70;;;13.85;;
48951;SDS011;34758;42.148;24.744;2023-02-15T03:24:00;20.63;;;14.10;;
48951;SDS011;34758;42.148;24.744;2023-02-15T03:29:00;16.83;;;12.38;;
48951;SDS011;34758;42.148;24.744;2023-02-15T03:31:32;19.58;;;13.98;;
48951;SDS011;34758;42.148;24.744;2023-02-15T03:34:06;18.73;;;13.02;;
48951;SDS011;34758;42.148;24.744;2023-02-15T03:39:12;19.00;;;13.82;;
48951;SDS011;34758;42.148;24.744;2023-02-15T03:41:45;19.35;;;12.70;;
48951;SDS011;34758;42.148;24.744;2023-02-15T03:44:18;17.58;;;12.50;;
48951;SDS011;34758;42.148;24.744;2023-02-15T03:46:50;18.08;;;12.35;;
48951;SDS011;34758;42.148;24.744;2023-02-15T03:49:21;17.30;;;12.65;;
48951;SDS011;34758;42.148;24.744;2023-02-15T03:51:52;19.15;;;13.15;;
48951;SDS011;34758;42.148;24.744;2023-02-15T03:54:24;18.48;;;13.38;;
48951;SDS011;34758;42.148;24.744;2023-02-15T03:57:16;19.10;;;13.23;;
48951;SDS011;34758;42.148;24.744;2023-02-15T04:00:03;19.33;;;13.95;;
48951;SDS011;34758;42.148;24.744;2023-02-15T04:02:54;20.15;;;13.32;;
48951;SDS011;34758;42.148;24.744;2023-02-15T04:05:27;22.27;;;14.65;;
48951;SDS011;34758;42.148;24.744;2023-02-15T04:07:56;21.13;;;13.95;;
48951;SDS011;34758;42.148;24.744;2023-02-15T04:10:24;21.88;;;13.65;;
48951;SDS011;34758;42.148;24.744;2023-02-15T04:13:10;25.77;;;14.68;;
48951;SDS011;34758;42.148;24.744;2023-02-15T04:15:39;19.08;;;13.05;;
48951;SDS011;34758;42.148;24.744;2023-02-15T04:18:23;18.45;;;13.30;;
48951;SDS011;34758;42.148;24.744;2023-02-15T04:21:08;17.38;;;12.27;;
48951;SDS011;34758;42.148;24.744;2023-02-15T04:23:54;19.50;;;13.45;;
48951;SDS011;34758;42.148;24.744;2023-02-15T04:26:38;18.85;;;13.05;;
48951;SDS011;34758;42.148;24.744;2023-02-15T04:29:07;17.75;;;12.43;;
48951;SDS011;34758;42.148;24.744;2023-02-15T04:31:35;17.60;;;13.13;;
48951;SDS011;34758;42.148;24.744;2023-02-15T04:34:03;16.80;;;12.18;;
48951;SDS011;34758;42.148;24.744;2023-02-15T04:36:30;20.08;;;13.98;;
48951;SDS011;34758;42.148;24.744;2023-02-15T04:38:59;18.63;;;13.02;;
48951;SDS011;34758;42.148;24.744;2023-02-15T04:41:28;16.70;;;12.48;;
48951;SDS011;34758;42.148;24.744;2023-02-15T04:43:55;13.68;;;10.68;;
48951;SDS011;34758;42.148;24.744;2023-02-15T04:46:22;16.98;;;12.40;;
48951;SDS011;34758;42.148;24.744;2023-02-15T04:48:49;16.30;;;11.60;;
48951;SDS011;34758;42.148;24.744;2023-02-15T04:51:16;18.58;;;13.30;;
48951;SDS011;34758;42.148;24.744;2023-02-15T04:53:43;21.13;;;13.27;;
48951;SDS011;34758;42.148;24.744;2023-02-15T04:56:12;19.10;;;12.68;;
48951;SDS011;34758;42.148;24.744;2023-02-15T04:58:39;16.38;;;12.45;;
48951;SDS011;34758;42.148;24.744;2023-02-15T05:01:06;18.83;;;12.40;;
48951;SDS011;34758;42.148;24.744;2023-02-15T05:03:34;16.65;;;11.93;;
48951;SDS011;34758;42.148;24.744;2023-02-15T05:06:01;19.40;;;12.82;;
48951;SDS011;34758;42.148;24.744;2023-02-15T05:08:30;17.17;;;12.80;;
48951;SDS011;34758;42.148;24.744;2023-02-15T05:11:00;21.95;;;15.43;;
48951;SDS011;34758;42.148;24.744;2023-02-15T05:13:28;19.40;;;14.57;;
48951;SDS011;34758;42.148;24.744;2023-02-15T05:15:57;20.10;;;14.65;;
48951;SDS011;34758;42.148;24.744;2023-02-15T05:18:26;18.92;;;12.93;;
48951;SDS011;34758;42.148;24.744;2023-02-15T05:20:53;19.73;;;13.07;;
48951;SDS011;34758;42.148;24.744;2023-02-15T05:23:21;18.73;;;13.65;;
48951;SDS011;34758;42.148;24.744;2023-02-15T05:25:48;20.20;;;13.40;;
48951;SDS011;34758;42.148;24.744;2023-02-15T05:28:35;15.80;;;11.95;;
48951;SDS011;34758;42.148;24.744;2023-02-15T05:31:05;19.05;;;13.38;;
48951;SDS011;34758;42.148;24.744;2023-02-15T05:33:36;20.00;;;12.90;;
48951;SDS011;34758;42.148;24.744;2023-02-15T05:36:03;17.60;;;13.07;;
48951;SDS011;34758;42.148;24.744;2023-02-15T05:38:31;18.75;;;13.77;;
48951;SDS011;34758;42.148;24.744;2023-02-15T05:40:59;19.95;;;12.85;;
48951;SDS011;34758;42.148;24.744;2023-02-15T05:43:27;18.63;;;13.15;;
48951;SDS011;34758;42.148;24.744;2023-02-15T05:45:56;17.45;;;12.98;;
48951;SDS011;34758;42.148;24.744;2023-02-15T05:48:24;17.77;;;13.32;;
48951;SDS011;34758;42.148;24.744;2023-02-15T05:50:56;21.30;;;14.85;;
48951;SDS011;34758;42.148;24.744;2023-02-15T05:53:26;20.73;;;13.85;;
48951;SDS011;34758;42.148;24.744;2023-02-15T05:55:54;18.10;;;13.43;;
48951;SDS011;34758;42.148;24.744;2023-02-15T05:58:24;20.52;;;14.05;;
48951;SDS011;34758;42.148;24.744;2023-02-15T06:00:56;21.13;;;13.32;;
48951;SDS011;34758;42.148;24.744;2023-02-15T06:03:24;19.57;;;13.40;;
48951;SDS011;34758;42.148;24.744;2023-02-15T06:05:54;18.23;;;13.48;;
48951;SDS011;34758;42.148;24.744;2023-02-15T06:08:21;20.25;;;13.70;;
48951;SDS011;34758;42.148;24.744;2023-02-15T06:10:49;19.52;;;13.57;;
48951;SDS011;34758;42.148;24.744;2023-02-15T06:13:17;19.58;;;14.13;;
48951;SDS011;34758;42.148;24.744;2023-02-15T06:15:46;21.27;;;13.60;;
48951;SDS011;34758;42.148;24.744;2023-02-15T06:18:14;19.77;;;13.98;;
48951;SDS011;34758;42.148;24.744;2023-02-15T06:20:41;20.75;;;13.85;;
48951;SDS011;34758;42.148;24.744;2023-02-15T06:23:08;18.08;;;12.63;;
48951;SDS011;34758;42.148;24.744;2023-02-15T06:25:36;18.50;;;13.32;;
48951;SDS011;34758;42.148;24.744;2023-02-15T06:28:03;20.40;;;14.18;;
48951;SDS011;34758;42.148;24.744;2023-02-15T06:30:31;21.25;;;13.70;;
48951;SDS011;34758;42.148;24.744;2023-02-15T06:32:57;17.42;;;12.55;;
48951;SDS011;34758;42.148;24.744;2023-02-15T06:35:29;20.73;;;13.48;;
48951;SDS011;34758;42.148;24.744;2023-02-15T06:37:57;17.98;;;12.43;;
48951;SDS011;34758;42.148;24.744;2023-02-15T06:40:27;17.35;;;11.88;;
48951;SDS011;34758;42.148;24.744;2023-02-15T06:42:55;19.02;;;13.25;;
48951;SDS011;34758;42.148;24.744;2023-02-15T06:45:22;19.38;;;14.00;;
48951;SDS011;34758;42.148;24.744;2023-02-15T06:47:49;17.90;;;13.88;;
48951;SDS011;34758;42.148;24.744;2023-02-15T06:50:17;18.77;;;13.15;;
48951;SDS011;34758;42.148;24.744;2023-02-15T06:52:46;13.95;;;10.55;;
48951;SDS011;34758;42.148;24.744;2023-02-15T06:55:14;16.83;;;12.35;;
48951;SDS011;34758;42.148;24.744;2023-02-15T06:57:41;19.13;;;12.80;;
48951;SDS011;34758;42.148;24.744;2023-02-15T07:00:11;17.55;;;11.68;;
48951;SDS011;34758;42.148;24.744;2023-02-15T07:02:40;17.85;;;13.32;;
48951;SDS011;34758;42.148;24.744;2023-02-15T07:05:10;17.20;;;12.75;;
48951;SDS011;34758;42.148;24.744;2023-02-15T07:07:37;15.95;;;11.38;;
48951;SDS011;34758;42.148;24.744;2023-02-15T07:10:06;13.65;;;10.98;;
48951;SDS011;34758;42.148;24.744;2023-02-15T07:12:34;17.38;;;13.45;;
48951;SDS011;34758;42.148;24.744;2023-02-15T07:15:11;14.43;;;10.60;;
48951;SDS011;34758;42.148;24.744;2023-02-15T07:17:40;17.13;;;11.63;;
48951;SDS011;34758;42.148;24.744;2023-02-15T07:20:09;15.02;;;10.95;;
48951;SDS011;34758;42.148;24.744;2023-02-15T07:22:41;16.02;;;11.95;;
48951;SDS011;34758;42.148;24.744;2023-02-15T07:25:12;17.88;;;12.90;;
48951;SDS011;34758;42.148;24.744;2023-02-15T07:27:40;17.08;;;12.65;;
48951;SDS011;34758;42.148;24.744;2023-02-15T07:30:08;18.10;;;13.15;;
48951;SDS011;34758;42.148;24.744;2023-02-15T07:32:38;16.35;;;11.40;;
48951;SDS011;34758;42.148;24.744;2023-02-15T07:35:26;15.27;;;11.50;;
48951;SDS011;34758;42.148;24.744;2023-02-15T07:37:53;16.63;;;12.65;;
48951;SDS011;34758;42.148;24.744;2023-02-15T07:40:23;17.65;;;13.13;;
48951;SDS011;34758;42.148;24.744;2023-02-15T07:42:50;17.10;;;13.02;;
48951;SDS011;34758;42.148;24.744;2023-02-15T07:45:20;18.80;;;12.95;;
48951;SDS011;34758;42.148;24.744;2023-02-15T07:47:50;17.02;;;11.90;;
48951;SDS011;34758;42.148;24.744;2023-02-15T07:50:17;19.00;;;13.05;;
48951;SDS011;34758;42.148;24.744;2023-02-15T07:52:45;16.38;;;12.38;;
48951;SDS011;34758;42.148;24.744;2023-02-15T07:55:12;17.73;;;13.05;;
48951;SDS011;34758;42.148;24.744;2023-02-15T07:57:43;17.35;;;12.75;;
48951;SDS011;34758;42.148;24.744;2023-02-15T08:00:13;18.65;;;13.35;;
48951;SDS011;34758;42.148;24.744;2023-02-15T08:02:42;16.25;;;12.75;;
48951;SDS011;34758;42.148;24.744;2023-02-15T08:05:08;16.20;;;11.82;;
48951;SDS011;34758;42.148;24.744;2023-02-15T08:07:36;21.58;;;13.35;;
48951;SDS011;34758;42.148;24.744;2023-02-15T08:10:03;20.05;;;13.88;;
48951;SDS011;34758;42.148;24.744;2023-02-15T08:12:31;17.02;;;11.98;;
48951;SDS011;34758;42.148;24.744;2023-02-15T08:15:00;17.40;;;12.30;;
48951;SDS011;34758;42.148;24.744;2023-02-15T08:17:27;19.13;;;14.02;;
48951;SDS011;34758;42.148;24.744;2023-02-15T08:19:55;18.92;;;13.30;;
48951;SDS011;34758;42.148;24.744;2023-02-15T08:22:23;20.55;;;13.68;;
48951;SDS011;34758;42.148;24.744;2023-02-15T08:24:51;17.30;;;12.23;;
48951;SDS011;34758;42.148;24.744;2023-02-15T08:27:20;21.35;;;14.88;;
48951;SDS011;34758;42.148;24.744;2023-02-15T08:29:53;18.77;;;14.40;;
48951;SDS011;34758;42.148;24.744;2023-02-15T08:32:24;18.77;;;13.57;;
48951;SDS011;34758;42.148;24.744;2023-02-15T08:37:22;17.42;;;13.23;;
48951;SDS011;34758;42.148;24.744;2023-02-15T08:39:52;16.35;;;11.90;;
48951;SDS011;34758;42.148;24.744;2023-02-15T08:42:19;32.00;;;25.42;;
48951;SDS011;34758;42.148;24.744;2023-02-15T08:44:47;17.95;;;13.23;;
48951;SDS011;34758;42.148;24.744;2023-02-15T08:47:15;18.58;;;13.18;;
48951;SDS011;34758;42.148;24.744;2023-02-15T08:49:45;17.58;;;12.82;;
48951;SDS011;34758;42.148;24.744;2023-02-15T08:52:13;18.60;;;13.27;;
48951;SDS011;34758;42.148;24.744;2023-02-15T08:54:41;16.27;;;13.02;;
48951;SDS011;34758;42.148;24.744;2023-02-15T08:57:10;20.60;;;13.35;;
48951;SDS011;34758;42.148;24.744;2023-02-15T08:59:37;16.65;;;13.27;;
48951;SDS011;34758;42.148;24.744;2023-02-15T09:02:04;17.48;;;13.48;;
48951;SDS011;34758;42.148;24.744;2023-02-15T09:04:31;17.98;;;13.32;;
48951;SDS011;34758;42.148;24.744;2023-02-15T09:07:02;16.52;;;12.52;;
48951;SDS011;34758;42.148;24.744;2023-02-15T09:09:30;19.02;;;13.10;;
48951;SDS011;34758;42.148;24.744;2023-02-15T09:11:58;18.25;;;12.65;;
48951;SDS011;34758;42.148;24.744;2023-02-15T09:14:25;18.75;;;13.93;;
48951;SDS011;34758;42.148;24.744;2023-02-15T09:16:54;18.23;;;13.45;;
48951;SDS011;34758;42.148;24.744;2023-02-15T09:19:22;18.33;;;13.23;;
48951;SDS011;34758;42.148;24.744;2023-02-15T09:21:51;18.90;;;13.48;;
48951;SDS011;34758;42.148;24.744;2023-02-15T09:24:21;17.88;;;12.93;;
48951;SDS011;34758;42.148;24.744;2023-02-15T09:26:48;18.13;;;12.10;;
48951;SDS011;34758;42.148;24.744;2023-02-15T09:29:17;15.30;;;11.25;;
48951;SDS011;34758;42.148;24.744;2023-02-15T09:31:45;15.40;;;12.05;;
48951;SDS011;34758;42.148;24.744;2023-02-15T09:34:15;17.52;;;12.68;;
48951;SDS011;34758;42.148;24.744;2023-02-15T09:36:43;15.55;;;12.45;;
48951;SDS011;34758;42.148;24.744;2023-02-15T09:39:11;14.95;;;11.30;;
48951;SDS011;34758;42.148;24.744;2023-02-15T09:41:51;13.55;;;10.30;;
48951;SDS011;34758;42.148;24.744;2023-02-15T09:44:31;17.90;;;13.15;;
48951;SDS011;34758;42.148;24.744;2023-02-15T09:47:21;15.25;;;12.02;;
48951;SDS011;34758;42.148;24.744;2023-02-15T09:50:06;17.00;;;11.60;;
48951;SDS011;34758;42.148;24.744;2023-02-15T09:52:41;17.50;;;12.68;;
48951;SDS011;34758;42.148;24.744;2023-02-15T09:55:24;17.45;;;12.48;;
48951;SDS011;34758;42.148;24.744;2023-02-15T09:58:17;16.52;;;11.50;;
48951;SDS011;34758;42.148;24.744;2023-02-15T10:00:50;17.35;;;13.38;;
48951;SDS011;34758;42.148;24.744;2023-02-15T10:03:23;16.60;;;12.40;;
48951;SDS011;34758;42.148;24.744;2023-02-15T10:06:03;16.58;;;12.18;;
48951;SDS011;34758;42.148;24.744;2023-02-15T10:08:48;17.13;;;12.07;;
48951;SDS011;34758;42.148;24.744;2023-02-15T10:11:24;13.10;;;10.15;;
48951;SDS011;34758;42.148;24.744;2023-02-15T10:14:18;14.27;;;11.15;;
48951;SDS011;34758;42.148;24.744;2023-02-15T10:17:06;14.30;;;10.88;;
48951;SDS011;34758;42.148;24.744;2023-02-15T10:19:42;12.95;;;10.35;;
48951;SDS011;34758;42.148;24.744;2023-02-15T10:22:21;15.65;;;11.60;;
48951;SDS011;34758;42.148;24.744;2023-02-15T10:24:58;14.90;;;11.52;;
48951;SDS011;34758;42.148;24.744;2023-02-15T10:27:38;14.73;;;10.75;;
48951;SDS011;34758;42.148;24.744;2023-02-15T10:32:47;15.77;;;11.05;;
48951;SDS011;34758;42.148;24.744;2023-02-15T10:35:23;14.10;;;11.40;;
48951;SDS011;34758;42.148;24.744;2023-02-15T10:38:02;14.60;;;10.85;;
48951;SDS011;34758;42.148;24.744;2023-02-15T10:40:37;15.00;;;11.32;;
48951;SDS011;34758;42.148;24.744;2023-02-15T10:45:51;15.27;;;10.55;;
48951;SDS011;34758;42.148;24.744;2023-02-15T10:48:26;14.70;;;11.15;;
48951;SDS011;34758;42.148;24.744;2023-02-15T10:51:08;14.32;;;11.00;;
48951;SDS011;34758;42.148;24.744;2023-02-15T10:53:41;16.15;;;11.02;;
48951;SDS011;34758;42.148;24.744;2023-02-15T10:56:38;11.82;;;8.77;;
48951;SDS011;34758;42.148;24.744;2023-02-15T10:59:13;10.95;;;8.85;;
48951;SDS011;34758;42.148;24.744;2023-02-15T11:01:49;14.27;;;10.43;;
48951;SDS011;34758;42.148;24.744;2023-02-15T11:07:16;13.82;;;11.23;;
48951;SDS011;34758;42.148;24.744;2023-02-15T11:09:49;12.50;;;10.07;;
48951;SDS011;34758;42.148;24.744;2023-02-15T11:12:21;12.88;;;8.60;;
48951;SDS011;34758;42.148;24.744;2023-02-15T11:14:51;12.55;;;9.13;;
48951;SDS011;34758;42.148;24.744;2023-02-15T11:17:24;13.25;;;10.07;;
48951;SDS011;34758;42.148;24.744;2023-02-15T11:19:57;11.48;;;8.63;;
48951;SDS011;34758;42.148;24.744;2023-02-15T11:22:28;10.85;;;9.70;;
48951;SDS011;34758;42.148;24.744;2023-02-15T11:24:58;12.88;;;9.80;;
48951;SDS011;34758;42.148;24.744;2023-02-15T11:27:28;11.02;;;9.18;;
48951;SDS011;34758;42.148;24.744;2023-02-15T11:29:59;10.82;;;9.20;;
48951;SDS011;34758;42.148;24.744;2023-02-15T11:32:30;9.88;;;8.70;;
48951;SDS011;34758;42.148;24.744;2023-02-15T11:35:00;12.88;;;10.25;;
48951;SDS011;34758;42.148;24.744;2023-02-15T11:37:33;10.73;;;8.77;;
48951;SDS011;34758;42.148;24.744;2023-02-15T11:40:20;12.40;;;9.98;;
48951;SDS011;34758;42.148;24.744;2023-02-15T11:42:53;13.45;;;9.82;;
48951;SDS011;34758;42.148;24.744;2023-02-15T11:45:23;12.77;;;10.55;;
48951;SDS011;34758;42.148;24.744;2023-02-15T11:47:56;12.50;;;9.73;;
48951;SDS011;34758;42.148;24.744;2023-02-15T11:50:24;9.77;;;8.68;;
48951;SDS011;34758;42.148;24.744;2023-02-15T11:52:53;11.68;;;9.93;;
48951;SDS011;34758;42.148;24.744;2023-02-15T11:55:24;12.00;;;10.20;;
48951;SDS011;34758;42.148;24.744;2023-02-15T11:57:57;11.73;;;9.60;;
48951;SDS011;34758;42.148;24.744;2023-02-15T12:00:32;11.25;;;8.55;;
48951;SDS011;34758;42.148;24.744;2023-02-15T12:03:03;11.90;;;8.85;;
48951;SDS011;34758;42.148;24.744;2023-02-15T12:05:40;11.77;;;9.02;;
48951;SDS011;34758;42.148;24.744;2023-02-15T12:08:12;12.20;;;9.70;;
48951;SDS011;34758;42.148;24.744;2023-02-15T12:10:44;12.20;;;10.13;;
48951;SDS011;34758;42.148;24.744;2023-02-15T12:13:20;13.50;;;9.68;;
48951;SDS011;34758;42.148;24.744;2023-02-15T12:15:49;9.77;;;7.28;;
48951;SDS011;34758;42.148;24.744;2023-02-15T12:18:25;9.48;;;7.28;;
48951;SDS011;34758;42.148;24.744;2023-02-15T12:21:03;9.80;;;7.95;;
48951;SDS011;34758;42.148;24.744;2023-02-15T12:23:32;9.43;;;8.13;;
48951;SDS011;34758;42.148;24.744;2023-02-15T12:26:00;10.88;;;8.65;;
48951;SDS011;34758;42.148;24.744;2023-02-15T12:28:30;12.32;;;9.60;;
48951;SDS011;34758;42.148;24.744;2023-02-15T12:31:00;12.10;;;10.13;;
48951;SDS011;34758;42.148;24.744;2023-02-15T12:33:30;11.88;;;9.82;;
48951;SDS011;34758;42.148;24.744;2023-02-15T12:36:03;10.48;;;8.25;;
48951;SDS011;34758;42.148;24.744;2023-02-15T12:38:36;14.27;;;8.82;;
48951;SDS011;34758;42.148;24.744;2023-02-15T12:41:21;11.05;;;9.23;;
48951;SDS011;34758;42.148;24.744;2023-02-15T12:46:20;10.82;;;7.90;;
48951;SDS011;34758;42.148;24.744;2023-02-15T12:49:11;11.15;;;8.85;;
48951;SDS011;34758;42.148;24.744;2023-02-15T12:51:44;11.73;;;8.95;;
48951;SDS011;34758;42.148;24.744;2023-02-15T12:54:20;10.52;;;8.25;;
48951;SDS011;34758;42.148;24.744;2023-02-15T12:56:55;10.13;;;8.65;;
48951;SDS011;34758;42.148;24.744;2023-02-15T12:59:24;11.05;;;8.35;;
48951;SDS011;34758;42.148;24.744;2023-02-15T13:01:51;9.32;;;7.53;;
48951;SDS011;34758;42.148;24.744;2023-02-15T13:04:24;11.60;;;8.38;;
48951;SDS011;34758;42.148;24.744;2023-02-15T13:06:52;10.68;;;8.93;;
48951;SDS011;34758;42.148;24.744;2023-02-15T13:09:25;10.60;;;9.23;;
48951;SDS011;34758;42.148;24.744;2023-02-15T13:12:09;9.90;;;8.07;;
48951;SDS011;34758;42.148;24.744;2023-02-15T13:14:41;8.48;;;7.38;;
48951;SDS011;34758;42.148;24.744;2023-02-15T13:17:13;9.20;;;8.05;;
48951;SDS011;34758;42.148;24.744;2023-02-15T13:19:44;11.15;;;8.27;;
48951;SDS011;34758;42.148;24.744;2023-02-15T13:22:14;10.75;;;9.13;;
48951;SDS011;34758;42.148;24.744;2023-02-15T13:24:43;10.60;;;8.70;;
48951;SDS011;34758;42.148;24.744;2023-02-15T13:27:14;10.25;;;7.95;;
48951;SDS011;34758;42.148;24.744;2023-02-15T13:29:43;10.68;;;8.07;;
48951;SDS011;34758;42.148;24.744;2023-02-15T13:32:16;14.60;;;11.27;;
48951;SDS011;34758;42.148;24.744;2023-02-15T13:34:52;10.60;;;8.98;;
48951;SDS011;34758;42.148;24.744;2023-02-15T13:37:25;9.50;;;7.85;;
48951;SDS011;34758;42.148;24.744;2023-02-15T13:40:18;11.13;;;8.48;;
48951;SDS011;34758;42.148;24.744;2023-02-15T13:42:49;11.55;;;9.13;;
48951;SDS011;34758;42.148;24.744;2023-02-15T13:48:20;10.07;;;8.73;;
48951;SDS011;34758;42.148;24.744;2023-02-15T13:50:59;9.70;;;7.30;;
48951;SDS011;34758;42.148;24.744;2023-02-15T13:53:38;10.23;;;8.50;;
48951;SDS011;34758;42.148;24.744;2023-02-15T13:56:17;9.90;;;8.10;;
48951;SDS011;34758;42.148;24.744;2023-02-15T13:59:01;11.13;;;9.00;;
48951;SDS011;34758;42.148;24.744;2023-02-15T14:01:49;10.60;;;8.95;;
48951;SDS011;34758;42.148;24.744;2023-02-15T14:04:29;11.43;;;9.05;;
48951;SDS011;34758;42.148;24.744;2023-02-15T14:10:20;12.30;;;9.00;;
48951;SDS011;34758;42.148;24.744;2023-02-15T14:12:57;13.70;;;9.48;;
48951;SDS011;34758;42.148;24.744;2023-02-15T14:15:35;14.82;;;10.57;;
48951;SDS011;34758;42.148;24.744;2023-02-15T14:18:12;12.77;;;9.82;;
48951;SDS011;34758;42.148;24.744;2023-02-15T14:20:52;12.73;;;9.98;;
48951;SDS011;34758;42.148;24.744;2023-02-15T14:23:28;13.52;;;10.00;;
48951;SDS011;34758;42.148;24.744;2023-02-15T14:26:09;13.48;;;9.73;;
48951;SDS011;34758;42.148;24.744;2023-02-15T14:29:02;13.90;;;9.43;;
48951;SDS011;34758;42.148;24.744;2023-02-15T14:31:43;13.87;;;9.87;;
48951;SDS011;34758;42.148;24.744;2023-02-15T14:34:17;14.05;;;10.15;;
48951;SDS011;34758;42.148;24.744;2023-02-15T14:36:46;15.38;;;10.25;;
48951;SDS011;34758;42.148;24.744;2023-02-15T14:39:24;16.95;;;12.40;;
48951;SDS011;34758;42.148;24.744;2023-02-15T14:42:20;14.57;;;10.05;;
48951;SDS011;34758;42.148;24.744;2023-02-15T14:44:54;11.77;;;9.00;;
48951;SDS011;34758;42.148;24.744;2023-02-15T14:47:36;14.18;;;10.40;;
48951;SDS011;34758;42.148;24.744;2023-02-15T14:53:16;14.27;;;10.90;;
48951;SDS011;34758;42.148;24.744;2023-02-15T14:56:05;17.65;;;10.10;;
48951;SDS011;34758;42.148;24.744;2023-02-15T14:59:00;14.05;;;10.88;;
48951;SDS011;34758;42.148;24.744;2023-02-15T15:01:39;12.82;;;10.05;;
48951;SDS011;34758;42.148;24.744;2023-02-15T15:04:21;12.13;;;9.70;;
48951;SDS011;34758;42.148;24.744;2023-02-15T15:07:02;11.15;;;8.20;;
48951;SDS011;34758;42.148;24.744;2023-02-15T15:09:35;10.70;;;8.70;;
48951;SDS011;34758;42.148;24.744;2023-02-15T15:15:13;11.10;;;8.88;;
48951;SDS011;34758;42.148;24.744;2023-02-15T15:17:59;13.68;;;10.52;;